sensor_id;sensor_type;location;lat;lon;timestamp;P1;durP1;ratioP1;P2;durP2;ratioP2
23252;SDS011;11795;47.054;15.408;2022-11-15T00:00:00;72.2;;;47.0;;
23252;SDS011;11795;47.054;15.408;2022-11-15T00:02:00;82.0;;;50.1;;
23252;SDS011;11795;47.054;15.408;2022-11-15T00:04:00;82.0;;;50.1;;
23252;SDS011;11795;47.054;15.408;2022-11-15T00:06:01;69.1;;;45.9;;
23252;SDS011;11795;47.054;15.408;2022-11-15T00:08:00;69.1;;;45.9;;
23252;SDS011;11795;47.054;15.408;2022-11-15T00:10:00;69.1;;;45.9;;
23252;SDS011;11795;47.054;15.408;2022-11-15T00:12:00;64.6;;;43.3;;
23252;SDS011;11795;47.054;15.408;2022-11-15T00:14:02;64.6;;;43.3;;
23252;SDS011;11795;47.054;15.408;2022-11-15T00:16:01;79.7;;;48.8;;
23252;SDS011;11795;47.054;15.408;2022-11-15T00:18:00;79.7;;;48.8;;
23252;SDS011;11795;47.054;15.408;2022-11-15T00:20:00;79.7;;;48.8;;
23252;SDS011;11795;47.054;15.408;2022-11-15T00:22:00;73.2;;;44.9;;
23252;SDS011;11795;47.054;15.408;2022-11-15T00:24:00;73.2;;;44.9;;
23252;SDS011;11795;47.054;15.408;2022-11-15T00:26:01;83.2;;;49.0;;
23252;SDS011;11795;47.054;15.408;2022-11-15T00:28:00;83.2;;;49.0;;
23252;SDS011;11795;47.054;15.408;2022-11-15T00:30:00;83.2;;;49.0;;
23252;SDS011;11795;47.054;15.408;2022-11-15T00:32:00;73.0;;;45.5;;
23252;SDS011;11795;47.054;15.408;2022-11-15T00:34:00;73.0;;;45.5;;
23252;SDS011;11795;47.054;15.408;2022-11-15T00:36:00;79.0;;;47.8;;
23252;SDS011;11795;47.054;15.408;2022-11-15T00:38:00;79.0;;;47.8;;
23252;SDS011;11795;47.054;15.408;2022-11-15T00:40:00;79.0;;;47.8;;
23252;SDS011;11795;47.054;15.408;2022-11-15T00:42:00;77.8;;;46.4;;
23252;SDS011;11795;47.054;15.408;2022-11-15T00:44:00;77.8;;;46.4;;
23252;SDS011;11795;47.054;15.408;2022-11-15T00:46:00;70.5;;;43.8;;
23252;SDS011;11795;47.054;15.408;2022-11-15T00:48:00;70.5;;;43.8;;
23252;SDS011;11795;47.054;15.408;2022-11-15T00:50:00;70.5;;;43.8;;
23252;SDS011;11795;47.054;15.408;2022-11-15T00:52:00;76.6;;;44.9;;
23252;SDS011;11795;47.054;15.408;2022-11-15T00:54:00;76.6;;;44.9;;
23252;SDS011;11795;47.054;15.408;2022-11-15T00:56:00;83.5;;;49.3;;
23252;SDS011;11795;47.054;15.408;2022-11-15T00:58:00;83.5;;;49.3;;
23252;SDS011;11795;47.054;15.408;2022-11-15T01:00:00;83.5;;;49.3;;
23252;SDS011;11795;47.054;15.408;2022-11-15T01:02:01;69.1;;;43.4;;
23252;SDS011;11795;47.054;15.408;2022-11-15T01:04:01;69.1;;;43.4;;
23252;SDS011;11795;47.054;15.408;2022-11-15T01:06:00;69.8;;;43.3;;
23252;SDS011;11795;47.054;15.408;2022-11-15T01:10:00;69.8;;;43.3;;
23252;SDS011;11795;47.054;15.408;2022-11-15T01:12:00;63.0;;;39.6;;
23252;SDS011;11795;47.054;15.408;2022-11-15T01:14:00;63.0;;;39.6;;
23252;SDS011;11795;47.054;15.408;2022-11-15T01:16:05;64.3;;;40.7;;
23252;SDS011;11795;47.054;15.408;2022-11-15T01:18:00;64.3;;;40.7;;
23252;SDS011;11795;47.054;15.408;2022-11-15T01:20:00;64.3;;;40.7;;
23252;SDS011;11795;47.054;15.408;2022-11-15T01:22:00;59.1;;;39.5;;
23252;SDS011;11795;47.054;15.408;2022-11-15T01:24:00;59.1;;;39.5;;
23252;SDS011;11795;47.054;15.408;2022-11-15T01:26:00;59.7;;;39.3;;
23252;SDS011;11795;47.054;15.408;2022-11-15T01:28:00;59.7;;;39.3;;
23252;SDS011;11795;47.054;15.408;2022-11-15T01:30:00;59.7;;;39.3;;
23252;SDS011;11795;47.054;15.408;2022-11-15T01:32:00;66.1;;;41.9;;
23252;SDS011;11795;47.054;15.408;2022-11-15T01:34:00;66.1;;;41.9;;
23252;SDS011;11795;47.054;15.408;2022-11-15T01:36:02;74.5;;;45.4;;
23252;SDS011;11795;47.054;15.408;2022-11-15T01:38:00;74.5;;;45.4;;
23252;SDS011;11795;47.054;15.408;2022-11-15T01:40:00;74.5;;;45.4;;
23252;SDS011;11795;47.054;15.408;2022-11-15T01:42:00;66.0;;;43.0;;
23252;SDS011;11795;47.054;15.408;2022-11-15T01:46:00;67.1;;;42.5;;
23252;SDS011;11795;47.054;15.408;2022-11-15T01:48:00;67.1;;;42.5;;
23252;SDS011;11795;47.054;15.408;2022-11-15T01:50:04;67.1;;;42.5;;
23252;SDS011;11795;47.054;15.408;2022-11-15T01:52:00;85.7;;;50.1;;
23252;SDS011;11795;47.054;15.408;2022-11-15T01:54:01;85.7;;;50.1;;
23252;SDS011;11795;47.054;15.408;2022-11-15T01:56:01;67.3;;;42.3;;
23252;SDS011;11795;47.054;15.408;2022-11-15T01:58:01;67.3;;;42.3;;
23252;SDS011;11795;47.054;15.408;2022-11-15T02:00:01;67.3;;;42.3;;
23252;SDS011;11795;47.054;15.408;2022-11-15T02:02:00;72.5;;;44.6;;
23252;SDS011;11795;47.054;15.408;2022-11-15T02:04:01;72.5;;;44.6;;
23252;SDS011;11795;47.054;15.408;2022-11-15T02:06:00;68.9;;;43.6;;
23252;SDS011;11795;47.054;15.408;2022-11-15T02:08:00;68.9;;;43.6;;
23252;SDS011;11795;47.054;15.408;2022-11-15T02:10:02;68.9;;;43.6;;
23252;SDS011;11795;47.054;15.408;2022-11-15T02:12:00;66.8;;;41.3;;
23252;SDS011;11795;47.054;15.408;2022-11-15T02:14:00;66.8;;;41.3;;
23252;SDS011;11795;47.054;15.408;2022-11-15T02:16:02;71.5;;;45.5;;
23252;SDS011;11795;47.054;15.408;2022-11-15T02:18:04;71.5;;;45.5;;
23252;SDS011;11795;47.054;15.408;2022-11-15T02:22:02;68.8;;;43.4;;
23252;SDS011;11795;47.054;15.408;2022-11-15T02:24:09;68.8;;;43.4;;
23252;SDS011;11795;47.054;15.408;2022-11-15T02:26:06;62.8;;;42.5;;
23252;SDS011;11795;47.054;15.408;2022-11-15T02:30:03;62.8;;;42.5;;
23252;SDS011;11795;47.054;15.408;2022-11-15T02:32:02;67.0;;;44.7;;
23252;SDS011;11795;47.054;15.408;2022-11-15T02:34:02;67.0;;;44.7;;
23252;SDS011;11795;47.054;15.408;2022-11-15T02:36:01;65.6;;;42.2;;
23252;SDS011;11795;47.054;15.408;2022-11-15T02:38:02;65.6;;;42.2;;
23252;SDS011;11795;47.054;15.408;2022-11-15T02:40:02;65.6;;;42.2;;
23252;SDS011;11795;47.054;15.408;2022-11-15T02:42:01;63.9;;;42.1;;
23252;SDS011;11795;47.054;15.408;2022-11-15T02:44:00;63.9;;;42.1;;
23252;SDS011;11795;47.054;15.408;2022-11-15T02:46:01;55.7;;;38.7;;
23252;SDS011;11795;47.054;15.408;2022-11-15T02:48:00;55.7;;;38.7;;
23252;SDS011;11795;47.054;15.408;2022-11-15T02:50:00;55.7;;;38.7;;
23252;SDS011;11795;47.054;15.408;2022-11-15T02:52:00;67.9;;;42.8;;
23252;SDS011;11795;47.054;15.408;2022-11-15T02:54:00;67.9;;;42.8;;
23252;SDS011;11795;47.054;15.408;2022-11-15T02:56:00;62.0;;;42.0;;
23252;SDS011;11795;47.054;15.408;2022-11-15T02:58:05;62.0;;;42.0;;
23252;SDS011;11795;47.054;15.408;2022-11-15T03:00:02;62.0;;;42.0;;
23252;SDS011;11795;47.054;15.408;2022-11-15T03:02:04;57.0;;;38.6;;
23252;SDS011;11795;47.054;15.408;2022-11-15T03:04:02;57.0;;;38.6;;
23252;SDS011;11795;47.054;15.408;2022-11-15T03:06:02;63.9;;;42.7;;
23252;SDS011;11795;47.054;15.408;2022-11-15T03:08:01;63.9;;;42.7;;
23252;SDS011;11795;47.054;15.408;2022-11-15T03:10:02;63.9;;;42.7;;
23252;SDS011;11795;47.054;15.408;2022-11-15T03:12:01;68.6;;;45.1;;
23252;SDS011;11795;47.054;15.408;2022-11-15T03:14:01;68.6;;;45.1;;
23252;SDS011;11795;47.054;15.408;2022-11-15T03:16:02;67.2;;;44.3;;
23252;SDS011;11795;47.054;15.408;2022-11-15T03:18:00;67.2;;;44.3;;
23252;SDS011;11795;47.054;15.408;2022-11-15T03:20:01;67.2;;;44.3;;
23252;SDS011;11795;47.054;15.408;2022-11-15T03:22:00;60.2;;;40.0;;
23252;SDS011;11795;47.054;15.408;2022-11-15T03:24:01;60.2;;;40.0;;
23252;SDS011;11795;47.054;15.408;2022-11-15T03:26:00;55.8;;;37.5;;
23252;SDS011;11795;47.054;15.408;2022-11-15T03:28:01;55.8;;;37.5;;
23252;SDS011;11795;47.054;15.408;2022-11-15T03:30:00;55.8;;;37.5;;
23252;SDS011;11795;47.054;15.408;2022-11-15T03:32:01;57.7;;;39.0;;
23252;SDS011;11795;47.054;15.408;2022-11-15T03:34:00;57.7;;;39.0;;
23252;SDS011;11795;47.054;15.408;2022-11-15T03:36:00;57.0;;;37.9;;
23252;SDS011;11795;47.054;15.408;2022-11-15T03:38:00;57.0;;;37.9;;
23252;SDS011;11795;47.054;15.408;2022-11-15T03:40:00;57.0;;;37.9;;
23252;SDS011;11795;47.054;15.408;2022-11-15T03:42:04;58.0;;;39.1;;
23252;SDS011;11795;47.054;15.408;2022-11-15T03:44:02;58.0;;;39.1;;
23252;SDS011;11795;47.054;15.408;2022-11-15T03:46:00;64.9;;;42.3;;
23252;SDS011;11795;47.054;15.408;2022-11-15T03:48:01;64.9;;;42.3;;
23252;SDS011;11795;47.054;15.408;2022-11-15T03:50:01;64.9;;;42.3;;
23252;SDS011;11795;47.054;15.408;2022-11-15T03:52:00;65.2;;;42.8;;
23252;SDS011;11795;47.054;15.408;2022-11-15T03:54:02;65.2;;;42.8;;
23252;SDS011;11795;47.054;15.408;2022-11-15T03:56:00;66.0;;;42.0;;
23252;SDS011;11795;47.054;15.408;2022-11-15T03:58:00;66.0;;;42.0;;
23252;SDS011;11795;47.054;15.408;2022-11-15T04:00:00;66.0;;;42.0;;
23252;SDS011;11795;47.054;15.408;2022-11-15T04:02:00;63.5;;;41.5;;
23252;SDS011;11795;47.054;15.408;2022-11-15T04:04:00;63.5;;;41.5;;
23252;SDS011;11795;47.054;15.408;2022-11-15T04:06:00;70.3;;;44.4;;
23252;SDS011;11795;47.054;15.408;2022-11-15T04:08:00;70.3;;;44.4;;
23252;SDS011;11795;47.054;15.408;2022-11-15T04:10:04;70.3;;;44.4;;
23252;SDS011;11795;47.054;15.408;2022-11-15T04:12:00;64.5;;;41.8;;
23252;SDS011;11795;47.054;15.408;2022-11-15T04:14:00;64.5;;;41.8;;
23252;SDS011;11795;47.054;15.408;2022-11-15T04:16:00;60.5;;;39.4;;
23252;SDS011;11795;47.054;15.408;2022-11-15T04:18:00;60.5;;;39.4;;
23252;SDS011;11795;47.054;15.408;2022-11-15T04:20:11;60.5;;;39.4;;
23252;SDS011;11795;47.054;15.408;2022-11-15T04:22:10;55.0;;;38.7;;
23252;SDS011;11795;47.054;15.408;2022-11-15T04:24:10;55.0;;;38.7;;
23252;SDS011;11795;47.054;15.408;2022-11-15T04:26:01;46.0;;;33.0;;
23252;SDS011;11795;47.054;15.408;2022-11-15T04:28:00;46.0;;;33.0;;
23252;SDS011;11795;47.054;15.408;2022-11-15T04:30:00;46.0;;;33.0;;
23252;SDS011;11795;47.054;15.408;2022-11-15T04:32:00;46.0;;;33.7;;
23252;SDS011;11795;47.054;15.408;2022-11-15T04:34:00;46.0;;;33.7;;
23252;SDS011;11795;47.054;15.408;2022-11-15T04:36:10;55.0;;;37.5;;
23252;SDS011;11795;47.054;15.408;2022-11-15T04:38:00;55.0;;;37.5;;
23252;SDS011;11795;47.054;15.408;2022-11-15T04:40:00;55.0;;;37.5;;
23252;SDS011;11795;47.054;15.408;2022-11-15T04:42:00;54.0;;;36.5;;
23252;SDS011;11795;47.054;15.408;2022-11-15T04:44:00;54.0;;;36.5;;
23252;SDS011;11795;47.054;15.408;2022-11-15T04:46:00;51.2;;;35.0;;
23252;SDS011;11795;47.054;15.408;2022-11-15T04:48:00;51.2;;;35.0;;
23252;SDS011;11795;47.054;15.408;2022-11-15T04:50:00;51.2;;;35.0;;
23252;SDS011;11795;47.054;15.408;2022-11-15T04:52:00;55.2;;;36.1;;
23252;SDS011;11795;47.054;15.408;2022-11-15T04:54:00;55.2;;;36.1;;
23252;SDS011;11795;47.054;15.408;2022-11-15T04:56:00;61.5;;;39.9;;
23252;SDS011;11795;47.054;15.408;2022-11-15T04:58:00;61.5;;;39.9;;
23252;SDS011;11795;47.054;15.408;2022-11-15T05:00:00;61.5;;;39.9;;
23252;SDS011;11795;47.054;15.408;2022-11-15T05:02:00;54.5;;;36.1;;
23252;SDS011;11795;47.054;15.408;2022-11-15T05:04:10;54.5;;;36.1;;
23252;SDS011;11795;47.054;15.408;2022-11-15T05:06:00;50.6;;;34.3;;
23252;SDS011;11795;47.054;15.408;2022-11-15T05:08:00;50.6;;;34.3;;
23252;SDS011;11795;47.054;15.408;2022-11-15T05:10:00;50.6;;;34.3;;
23252;SDS011;11795;47.054;15.408;2022-11-15T05:12:00;52.7;;;33.7;;
23252;SDS011;11795;47.054;15.408;2022-11-15T05:14:00;52.7;;;33.7;;
23252;SDS011;11795;47.054;15.408;2022-11-15T05:16:00;46.7;;;32.5;;
23252;SDS011;11795;47.054;15.408;2022-11-15T05:18:00;46.7;;;32.5;;
23252;SDS011;11795;47.054;15.408;2022-11-15T05:20:00;46.7;;;32.5;;
23252;SDS011;11795;47.054;15.408;2022-11-15T05:22:00;49.9;;;32.7;;
23252;SDS011;11795;47.054;15.408;2022-11-15T05:24:00;49.9;;;32.7;;
23252;SDS011;11795;47.054;15.408;2022-11-15T05:26:00;47.3;;;31.9;;
23252;SDS011;11795;47.054;15.408;2022-11-15T05:28:00;47.3;;;31.9;;
23252;SDS011;11795;47.054;15.408;2022-11-15T05:30:00;47.3;;;31.9;;
23252;SDS011;11795;47.054;15.408;2022-11-15T05:32:00;59.9;;;38.6;;
23252;SDS011;11795;47.054;15.408;2022-11-15T05:34:00;59.9;;;38.6;;
23252;SDS011;11795;47.054;15.408;2022-11-15T05:36:01;76.5;;;44.4;;
23252;SDS011;11795;47.054;15.408;2022-11-15T05:38:00;76.5;;;44.4;;
23252;SDS011;11795;47.054;15.408;2022-11-15T05:40:00;76.5;;;44.4;;
23252;SDS011;11795;47.054;15.408;2022-11-15T05:42:01;66.0;;;40.0;;
23252;SDS011;11795;47.054;15.408;2022-11-15T05:44:00;66.0;;;40.0;;
23252;SDS011;11795;47.054;15.408;2022-11-15T05:46:00;81.0;;;45.7;;
23252;SDS011;11795;47.054;15.408;2022-11-15T05:48:00;81.0;;;45.7;;
23252;SDS011;11795;47.054;15.408;2022-11-15T05:50:00;81.0;;;45.7;;
23252;SDS011;11795;47.054;15.408;2022-11-15T05:52:00;88.9;;;50.0;;
23252;SDS011;11795;47.054;15.408;2022-11-15T05:54:00;88.9;;;50.0;;
23252;SDS011;11795;47.054;15.408;2022-11-15T05:56:00;76.6;;;44.5;;
23252;SDS011;11795;47.054;15.408;2022-11-15T05:58:00;76.6;;;44.5;;
23252;SDS011;11795;47.054;15.408;2022-11-15T06:00:00;76.6;;;44.5;;
23252;SDS011;11795;47.054;15.408;2022-11-15T06:02:00;91.7;;;50.2;;
23252;SDS011;11795;47.054;15.408;2022-11-15T06:04:00;91.7;;;50.2;;
23252;SDS011;11795;47.054;15.408;2022-11-15T06:06:00;88.9;;;49.2;;
23252;SDS011;11795;47.054;15.408;2022-11-15T06:08:00;88.9;;;49.2;;
23252;SDS011;11795;47.054;15.408;2022-11-15T06:10:00;88.9;;;49.2;;
23252;SDS011;11795;47.054;15.408;2022-11-15T06:12:00;95.8;;;50.8;;
23252;SDS011;11795;47.054;15.408;2022-11-15T06:14:00;95.8;;;50.8;;
23252;SDS011;11795;47.054;15.408;2022-11-15T06:16:00;91.8;;;48.8;;
23252;SDS011;11795;47.054;15.408;2022-11-15T06:18:00;91.8;;;48.8;;
23252;SDS011;11795;47.054;15.408;2022-11-15T06:20:00;91.8;;;48.8;;
23252;SDS011;11795;47.054;15.408;2022-11-15T06:22:00;95.9;;;48.7;;
23252;SDS011;11795;47.054;15.408;2022-11-15T06:24:00;95.9;;;48.7;;
23252;SDS011;11795;47.054;15.408;2022-11-15T06:26:00;108.8;;;50.1;;
23252;SDS011;11795;47.054;15.408;2022-11-15T06:28:00;108.8;;;50.1;;
23252;SDS011;11795;47.054;15.408;2022-11-15T06:30:00;108.8;;;50.1;;
23252;SDS011;11795;47.054;15.408;2022-11-15T06:32:00;91.1;;;47.2;;
23252;SDS011;11795;47.054;15.408;2022-11-15T06:34:00;91.1;;;47.2;;
23252;SDS011;11795;47.054;15.408;2022-11-15T06:36:00;95.9;;;49.6;;
23252;SDS011;11795;47.054;15.408;2022-11-15T06:38:02;95.9;;;49.6;;
23252;SDS011;11795;47.054;15.408;2022-11-15T06:40:00;95.9;;;49.6;;
23252;SDS011;11795;47.054;15.408;2022-11-15T06:42:00;93.8;;;47.8;;
23252;SDS011;11795;47.054;15.408;2022-11-15T06:44:00;93.8;;;47.8;;
23252;SDS011;11795;47.054;15.408;2022-11-15T06:46:00;88.0;;;45.9;;
23252;SDS011;11795;47.054;15.408;2022-11-15T06:48:00;88.0;;;45.9;;
23252;SDS011;11795;47.054;15.408;2022-11-15T06:50:00;88.0;;;45.9;;
23252;SDS011;11795;47.054;15.408;2022-11-15T06:52:00;88.4;;;45.7;;
23252;SDS011;11795;47.054;15.408;2022-11-15T06:54:00;88.4;;;45.7;;
23252;SDS011;11795;47.054;15.408;2022-11-15T06:56:01;72.7;;;41.8;;
23252;SDS011;11795;47.054;15.408;2022-11-15T06:58:00;72.7;;;41.8;;
23252;SDS011;11795;47.054;15.408;2022-11-15T07:00:00;72.7;;;41.8;;
23252;SDS011;11795;47.054;15.408;2022-11-15T07:02:00;77.1;;;42.6;;
23252;SDS011;11795;47.054;15.408;2022-11-15T07:04:00;77.1;;;42.6;;
23252;SDS011;11795;47.054;15.408;2022-11-15T07:06:00;71.3;;;39.8;;
23252;SDS011;11795;47.054;15.408;2022-11-15T07:08:00;71.3;;;39.8;;
23252;SDS011;11795;47.054;15.408;2022-11-15T07:10:00;71.3;;;39.8;;
23252;SDS011;11795;47.054;15.408;2022-11-15T07:12:00;65.5;;;38.3;;
23252;SDS011;11795;47.054;15.408;2022-11-15T07:14:00;65.5;;;38.3;;
23252;SDS011;11795;47.054;15.408;2022-11-15T07:16:01;60.8;;;36.3;;
23252;SDS011;11795;47.054;15.408;2022-11-15T07:18:00;60.8;;;36.3;;
23252;SDS011;11795;47.054;15.408;2022-11-15T07:20:00;60.8;;;36.3;;
23252;SDS011;11795;47.054;15.408;2022-11-15T07:22:00;82.8;;;44.4;;
23252;SDS011;11795;47.054;15.408;2022-11-15T07:24:00;82.8;;;44.4;;
23252;SDS011;11795;47.054;15.408;2022-11-15T07:26:00;82.8;;;44.4;;
23252;SDS011;11795;47.054;15.408;2022-11-15T07:28:00;67.0;;;39.0;;
23252;SDS011;11795;47.054;15.408;2022-11-15T07:30:00;67.0;;;39.0;;
23252;SDS011;11795;47.054;15.408;2022-11-15T07:32:00;61.9;;;35.3;;
23252;SDS011;11795;47.054;15.408;2022-11-15T07:34:00;61.9;;;35.3;;
23252;SDS011;11795;47.054;15.408;2022-11-15T07:36:01;61.9;;;35.3;;
23252;SDS011;11795;47.054;15.408;2022-11-15T07:38:01;54.6;;;33.9;;
23252;SDS011;11795;47.054;15.408;2022-11-15T07:40:00;54.6;;;33.9;;
23252;SDS011;11795;47.054;15.408;2022-11-15T07:42:10;63.9;;;37.2;;
23252;SDS011;11795;47.054;15.408;2022-11-15T07:44:00;63.9;;;37.2;;
23252;SDS011;11795;47.054;15.408;2022-11-15T07:46:03;63.9;;;37.2;;
23252;SDS011;11795;47.054;15.408;2022-11-15T07:48:00;71.2;;;40.6;;
23252;SDS011;11795;47.054;15.408;2022-11-15T07:50:00;71.2;;;40.6;;
23252;SDS011;11795;47.054;15.408;2022-11-15T07:52:00;66.4;;;37.6;;
23252;SDS011;11795;47.054;15.408;2022-11-15T07:54:00;66.4;;;37.6;;
23252;SDS011;11795;47.054;15.408;2022-11-15T07:56:00;66.4;;;37.6;;
23252;SDS011;11795;47.054;15.408;2022-11-15T07:58:00;79.2;;;43.2;;
23252;SDS011;11795;47.054;15.408;2022-11-15T08:00:00;79.2;;;43.2;;
23252;SDS011;11795;47.054;15.408;2022-11-15T08:02:00;67.4;;;39.2;;
23252;SDS011;11795;47.054;15.408;2022-11-15T08:04:00;67.4;;;39.2;;
23252;SDS011;11795;47.054;15.408;2022-11-15T08:06:00;67.4;;;39.2;;
23252;SDS011;11795;47.054;15.408;2022-11-15T08:08:00;76.7;;;43.7;;
23252;SDS011;11795;47.054;15.408;2022-11-15T08:10:01;76.7;;;43.7;;
23252;SDS011;11795;47.054;15.408;2022-11-15T08:12:00;68.2;;;39.8;;
23252;SDS011;11795;47.054;15.408;2022-11-15T08:14:01;68.2;;;39.8;;
23252;SDS011;11795;47.054;15.408;2022-11-15T08:16:00;68.2;;;39.8;;
23252;SDS011;11795;47.054;15.408;2022-11-15T08:18:01;73.9;;;41.1;;
23252;SDS011;11795;47.054;15.408;2022-11-15T08:20:00;73.9;;;41.1;;
23252;SDS011;11795;47.054;15.408;2022-11-15T08:22:00;72.9;;;41.8;;
23252;SDS011;11795;47.054;15.408;2022-11-15T08:24:00;72.9;;;41.8;;
23252;SDS011;11795;47.054;15.408;2022-11-15T08:26:01;72.9;;;41.8;;
23252;SDS011;11795;47.054;15.408;2022-11-15T08:28:01;68.7;;;40.2;;
23252;SDS011;11795;47.054;15.408;2022-11-15T08:30:00;68.7;;;40.2;;
23252;SDS011;11795;47.054;15.408;2022-11-15T08:32:00;61.4;;;37.7;;
23252;SDS011;11795;47.054;15.408;2022-11-15T08:34:00;61.4;;;37.7;;
23252;SDS011;11795;47.054;15.408;2022-11-15T08:36:00;61.4;;;37.7;;
23252;SDS011;11795;47.054;15.408;2022-11-15T08:38:00;59.3;;;36.0;;
23252;SDS011;11795;47.054;15.408;2022-11-15T08:40:00;59.3;;;36.0;;
23252;SDS011;11795;47.054;15.408;2022-11-15T08:42:00;63.8;;;39.5;;
23252;SDS011;11795;47.054;15.408;2022-11-15T08:44:00;63.8;;;39.5;;
23252;SDS011;11795;47.054;15.408;2022-11-15T08:46:00;63.8;;;39.5;;
23252;SDS011;11795;47.054;15.408;2022-11-15T08:48:00;63.7;;;38.9;;
23252;SDS011;11795;47.054;15.408;2022-11-15T08:50:00;63.7;;;38.9;;
23252;SDS011;11795;47.054;15.408;2022-11-15T08:52:00;70.1;;;40.9;;
23252;SDS011;11795;47.054;15.408;2022-11-15T08:54:00;70.1;;;40.9;;
23252;SDS011;11795;47.054;15.408;2022-11-15T08:56:00;70.1;;;40.9;;
23252;SDS011;11795;47.054;15.408;2022-11-15T08:58:00;75.8;;;43.6;;
23252;SDS011;11795;47.054;15.408;2022-11-15T09:00:00;75.8;;;43.6;;
23252;SDS011;11795;47.054;15.408;2022-11-15T09:02:00;73.4;;;42.2;;
23252;SDS011;11795;47.054;15.408;2022-11-15T09:04:00;73.4;;;42.2;;
23252;SDS011;11795;47.054;15.408;2022-11-15T09:06:00;73.4;;;42.2;;
23252;SDS011;11795;47.054;15.408;2022-11-15T09:08:00;69.2;;;42.0;;
23252;SDS011;11795;47.054;15.408;2022-11-15T09:10:00;69.2;;;42.0;;
23252;SDS011;11795;47.054;15.408;2022-11-15T09:12:00;68.3;;;40.3;;
23252;SDS011;11795;47.054;15.408;2022-11-15T09:14:00;68.3;;;40.3;;
23252;SDS011;11795;47.054;15.408;2022-11-15T09:16:00;68.3;;;40.3;;
23252;SDS011;11795;47.054;15.408;2022-11-15T09:18:00;67.0;;;40.6;;
23252;SDS011;11795;47.054;15.408;2022-11-15T09:20:00;67.0;;;40.6;;
23252;SDS011;11795;47.054;15.408;2022-11-15T09:22:00;70.4;;;42.4;;
23252;SDS011;11795;47.054;15.408;2022-11-15T09:24:00;70.4;;;42.4;;
23252;SDS011;11795;47.054;15.408;2022-11-15T09:26:01;70.4;;;42.4;;
23252;SDS011;11795;47.054;15.408;2022-11-15T09:28:00;69.7;;;41.1;;
23252;SDS011;11795;47.054;15.408;2022-11-15T09:30:00;69.7;;;41.1;;
23252;SDS011;11795;47.054;15.408;2022-11-15T09:32:00;69.1;;;40.3;;
23252;SDS011;11795;47.054;15.408;2022-11-15T09:34:00;69.1;;;40.3;;
23252;SDS011;11795;47.054;15.408;2022-11-15T09:36:00;69.1;;;40.3;;
23252;SDS011;11795;47.054;15.408;2022-11-15T09:38:00;62.0;;;37.3;;
23252;SDS011;11795;47.054;15.408;2022-11-15T09:40:00;62.0;;;37.3;;
23252;SDS011;11795;47.054;15.408;2022-11-15T09:42:04;63.4;;;38.8;;
23252;SDS011;11795;47.054;15.408;2022-11-15T09:44:04;63.4;;;38.8;;
23252;SDS011;11795;47.054;15.408;2022-11-15T09:46:04;63.4;;;38.8;;
23252;SDS011;11795;47.054;15.408;2022-11-15T09:48:11;64.1;;;38.8;;
23252;SDS011;11795;47.054;15.408;2022-11-15T09:50:00;64.1;;;38.8;;
23252;SDS011;11795;47.054;15.408;2022-11-15T09:52:00;69.8;;;40.5;;
23252;SDS011;11795;47.054;15.408;2022-11-15T09:54:03;69.8;;;40.5;;
23252;SDS011;11795;47.054;15.408;2022-11-15T09:56:01;69.8;;;40.5;;
23252;SDS011;11795;47.054;15.408;2022-11-15T09:58:02;63.9;;;37.6;;
23252;SDS011;11795;47.054;15.408;2022-11-15T10:00:04;63.9;;;37.6;;
23252;SDS011;11795;47.054;15.408;2022-11-15T10:02:01;62.9;;;37.7;;
23252;SDS011;11795;47.054;15.408;2022-11-15T10:04:00;62.9;;;37.7;;
23252;SDS011;11795;47.054;15.408;2022-11-15T10:06:01;62.9;;;37.7;;
23252;SDS011;11795;47.054;15.408;2022-11-15T10:08:01;65.1;;;38.6;;
23252;SDS011;11795;47.054;15.408;2022-11-15T10:10:02;65.1;;;38.6;;
23252;SDS011;11795;47.054;15.408;2022-11-15T10:12:00;61.6;;;37.0;;
23252;SDS011;11795;47.054;15.408;2022-11-15T10:14:01;61.6;;;37.0;;
23252;SDS011;11795;47.054;15.408;2022-11-15T10:16:02;61.6;;;37.0;;
23252;SDS011;11795;47.054;15.408;2022-11-15T10:18:06;57.7;;;35.2;;
23252;SDS011;11795;47.054;15.408;2022-11-15T10:20:02;57.7;;;35.2;;
23252;SDS011;11795;47.054;15.408;2022-11-15T10:22:04;59.4;;;35.3;;
23252;SDS011;11795;47.054;15.408;2022-11-15T10:24:00;59.4;;;35.3;;
23252;SDS011;11795;47.054;15.408;2022-11-15T10:26:00;59.4;;;35.3;;
23252;SDS011;11795;47.054;15.408;2022-11-15T10:28:01;55.2;;;35.0;;
23252;SDS011;11795;47.054;15.408;2022-11-15T10:30:00;55.2;;;35.0;;
23252;SDS011;11795;47.054;15.408;2022-11-15T10:32:00;55.9;;;35.4;;
23252;SDS011;11795;47.054;15.408;2022-11-15T10:34:06;55.9;;;35.4;;
23252;SDS011;11795;47.054;15.408;2022-11-15T10:38:04;50.0;;;33.3;;
23252;SDS011;11795;47.054;15.408;2022-11-15T10:40:04;50.0;;;33.3;;
23252;SDS011;11795;47.054;15.408;2022-11-15T10:44:02;44.3;;;29.8;;
23252;SDS011;11795;47.054;15.408;2022-11-15T10:46:01;44.3;;;29.8;;
23252;SDS011;11795;47.054;15.408;2022-11-15T10:50:02;54.5;;;34.4;;
23252;SDS011;11795;47.054;15.408;2022-11-15T10:52:00;49.1;;;32.5;;
23252;SDS011;11795;47.054;15.408;2022-11-15T10:54:00;49.1;;;32.5;;
23252;SDS011;11795;47.054;15.408;2022-11-15T10:56:01;49.1;;;32.5;;
23252;SDS011;11795;47.054;15.408;2022-11-15T10:58:03;47.8;;;31.8;;
23252;SDS011;11795;47.054;15.408;2022-11-15T11:00:01;47.8;;;31.8;;
23252;SDS011;11795;47.054;15.408;2022-11-15T11:02:00;47.2;;;31.9;;
23252;SDS011;11795;47.054;15.408;2022-11-15T11:04:01;47.2;;;31.9;;
23252;SDS011;11795;47.054;15.408;2022-11-15T11:06:03;47.2;;;31.9;;
23252;SDS011;11795;47.054;15.408;2022-11-15T11:08:02;45.2;;;30.2;;
23252;SDS011;11795;47.054;15.408;2022-11-15T11:10:01;45.2;;;30.2;;
23252;SDS011;11795;47.054;15.408;2022-11-15T11:12:00;43.1;;;30.1;;
23252;SDS011;11795;47.054;15.408;2022-11-15T11:14:05;43.1;;;30.1;;
23252;SDS011;11795;47.054;15.408;2022-11-15T11:16:07;43.1;;;30.1;;
23252;SDS011;11795;47.054;15.408;2022-11-15T11:18:02;44.6;;;30.1;;
23252;SDS011;11795;47.054;15.408;2022-11-15T11:20:01;44.6;;;30.1;;
23252;SDS011;11795;47.054;15.408;2022-11-15T11:22:01;46.7;;;31.9;;
23252;SDS011;11795;47.054;15.408;2022-11-15T11:24:02;46.7;;;31.9;;
23252;SDS011;11795;47.054;15.408;2022-11-15T11:26:04;46.7;;;31.9;;
23252;SDS011;11795;47.054;15.408;2022-11-15T11:28:05;49.4;;;32.6;;
23252;SDS011;11795;47.054;15.408;2022-11-15T11:30:02;49.4;;;32.6;;
23252;SDS011;11795;47.054;15.408;2022-11-15T11:32:03;47.5;;;32.6;;
23252;SDS011;11795;47.054;15.408;2022-11-15T11:34:02;47.5;;;32.6;;
23252;SDS011;11795;47.054;15.408;2022-11-15T11:36:04;47.5;;;32.6;;
23252;SDS011;11795;47.054;15.408;2022-11-15T11:38:04;47.6;;;32.0;;
23252;SDS011;11795;47.054;15.408;2022-11-15T11:40:03;47.6;;;32.0;;
23252;SDS011;11795;47.054;15.408;2022-11-15T11:42:02;45.5;;;31.7;;
23252;SDS011;11795;47.054;15.408;2022-11-15T11:44:03;45.5;;;31.7;;
23252;SDS011;11795;47.054;15.408;2022-11-15T11:46:05;45.5;;;31.7;;
23252;SDS011;11795;47.054;15.408;2022-11-15T11:48:02;47.7;;;31.9;;
23252;SDS011;11795;47.054;15.408;2022-11-15T11:50:00;47.7;;;31.9;;
23252;SDS011;11795;47.054;15.408;2022-11-15T11:52:01;43.9;;;30.0;;
23252;SDS011;11795;47.054;15.408;2022-11-15T11:54:01;43.9;;;30.0;;
23252;SDS011;11795;47.054;15.408;2022-11-15T11:56:02;43.9;;;30.0;;
23252;SDS011;11795;47.054;15.408;2022-11-15T11:58:03;42.4;;;29.3;;
23252;SDS011;11795;47.054;15.408;2022-11-15T12:00:02;42.4;;;29.3;;
23252;SDS011;11795;47.054;15.408;2022-11-15T12:02:01;40.2;;;28.5;;
23252;SDS011;11795;47.054;15.408;2022-11-15T12:04:01;40.2;;;28.5;;